WetterOnline ( https://www.wetteronline.de )

Wetter aktuell Esthal

Aktuelles Wetter: Weinbiet/Pfalz (557m)

6-stündlich | Neueste Meldungen
Ortszeit Temperatur Wetter
Do, 30.05. 8:00 11.6° C Nebel
Do, 30.05. 2:00 11.4° C leichter Regen
Mi, 29.05. 20:00 12.1° C bedeckt
Mi, 29.05. 14:00 13.4° C leichter Regen
Mi, 29.05. 8:00 12.3° C bedeckt
Mi, 29.05. 2:00 12.6° C bedeckt
Di, 28.05. 20:00 15.0° C bedeckt
Di, 28.05. 14:00 13.4° C bewölkt
Ortszeit Temperatur Wetter
Do, 30.05. 12:30 15.5° C wolkig
Do, 30.05. 12:20 15.5° C wolkig
Do, 30.05. 12:10 13.3° C Sprühregen
Do, 30.05. 12:00 14.4° C bewölkt
Do, 30.05. 11:50 14.4° C bewölkt
Do, 30.05. 11:40 14.8° C bewölkt
Do, 30.05. 11:30 12.9° C bedeckt
Do, 30.05. 11:00 12.1° C bewölkt
Do, 30.05. 10:30 12.0° C bewölkt
Do, 30.05. 10:00 12.2° C bewölkt
Do, 30.05. 9:30 11.1° C Nebel
Ortszeit Relative Feuchte Sichtweite
Do, 30.05. 8:00 98% 0.4 km
Do, 30.05. 2:00 98% 0.6 km
Mi, 29.05. 20:00 91% 30 km
Mi, 29.05. 14:00 84% 28 km
Mi, 29.05. 8:00 84% 45 km
Mi, 29.05. 2:00 77% 65 km
Di, 28.05. 20:00 58% >70 km
Di, 28.05. 14:00 55% >70 km
Ortszeit Relative Feuchte Sichtweite
Do, 30.05. 12:30 94% >70 km
Do, 30.05. 12:20 94% -
Do, 30.05. 12:10 91% -
Do, 30.05. 12:00 84% >70 km
Do, 30.05. 11:50 84% -
Do, 30.05. 11:40 86% -
Do, 30.05. 11:30 88% 65 km
Do, 30.05. 11:00 92% >70 km
Do, 30.05. 10:30 92% 65 km
Do, 30.05. 10:00 96% 30 km
Do, 30.05. 9:30 97% 0.6 km
Ortszeit Niederschlagsmenge Niederschlagsart
Do, 30.05. 8:00 10 l/m2 in 12 Std. Regen
Do, 30.05. 2:00 1 l/m2 in 6 Std. Regen
Mi, 29.05. 20:00 0.2 l/m2 in 12 Std. Regen
Mi, 29.05. 14:00 0.2 l/m2 in 6 Std. Regen
Mi, 29.05. 8:00 0.1 l/m2 in 12 Std. Regen
Mi, 29.05. 2:00 0.1 l/m2 in 6 Std. Regen
Di, 28.05. 20:00 0.0 l/m2 in 12 Std. -
Di, 28.05. 14:00 0.0 l/m2 in 6 Std. -
Ortszeit Niederschlagsmenge Niederschlagsart
Do, 30.05. 12:30 0.3 l/m2 in 30 Min Schneeregen
Do, 30.05. 12:20 keine Meldung -
Do, 30.05. 12:10 keine Meldung -
Do, 30.05. 12:00 0.0 l/m2 in 1 Std. -
Do, 30.05. 11:50 keine Meldung -
Do, 30.05. 11:40 keine Meldung -
Do, 30.05. 11:30 0.0 l/m2 in 30 Min -
Do, 30.05. 11:00 0.0 l/m2 in 1 Std. Regen
Do, 30.05. 10:30 0.0 l/m2 in 30 Min -
Do, 30.05. 10:00 <0.05 l/m2 in 1 Std. Regen
Do, 30.05. 9:30 <0.05 l/m2 in 30 Min -
Ortszeit Stärke Spitze Richtung
km/h Bft. km/h Grad Sektor
Do, 30.05. 8:00 26 4 33 270° W
Do, 30.05. 2:00 18 3 47 180° S
Mi, 29.05. 20:00 33 5 57 240° SW
Mi, 29.05. 14:00 29 5 50 250° W
Mi, 29.05. 8:00 24 4 39 230° SW
Mi, 29.05. 2:00 31 5 43 260° W
Di, 28.05. 20:00 15 3 37 190° S
Di, 28.05. 14:00 22 4 36 260° W
Ortszeit Stärke Spitze Richtung
km/h Bft. km/h Grad Sektor
Do, 30.05. 12:30 17 3 41 250° W
Do, 30.05. 12:20 17 3 - 250° W
Do, 30.05. 12:10 25 4 - 250° W
Do, 30.05. 12:00 19 3 31 240° SW
Do, 30.05. 11:50 19 3 - 240° SW
Do, 30.05. 11:40 17 3 - 250° W
Do, 30.05. 11:30 20 4 31 240° SW
Do, 30.05. 11:00 29 5 40 270° W
Do, 30.05. 10:30 30 5 41 270° W
Do, 30.05. 10:00 30 5 43 270° W
Do, 30.05. 9:30 28 4 39 270° W
Ortszeit Untergrenze Bedeckung Gattung
total tief tief mittel hoch
Do, 30.05. 8:00 <30 m 8/8 0/8 - - -
Do, 30.05. 2:00 30 m 8/8 8/8 - - -
Mi, 29.05. 20:00 210 m 8/8 8/8 - - -
Mi, 29.05. 14:00 420 m 8/8 8/8 - - -
Mi, 29.05. 8:00 960 m 8/8 8/8 - - -
Mi, 29.05. 2:00 1500 m 8/8 8/8 - - -
Di, 28.05. 20:00 1380 m 8/8 8/8 - - -
Di, 28.05. 14:00 1290 m 7/8 6/8 - - -
Ortszeit Bedeckungsgrad in Achtel und Wolkenuntergrenze
Do, 30.05. 12:30 2(180m) 5(1020m) 6(1800m)
Do, 30.05. 12:20 2(180m) 5(1020m) 6(1800m)
Do, 30.05. 12:10 7
Do, 30.05. 12:00 1(330m) 7(1170m) 7(1500m)
Do, 30.05. 11:50 1(330m) 7(1170m) 7(1500m)
Do, 30.05. 11:40 7
Do, 30.05. 11:30 3(1260m) 8(1500m)
Do, 30.05. 11:00 1(210m) 7(1410m) 7(1800m)
Do, 30.05. 10:30 1(120m) 7(1410m) 7(1800m)
Do, 30.05. 10:00 3(<30m) 7(120m) 7(2700m)
Do, 30.05. 9:30 6(30m) 7(150m) 7(1500m)
Ortszeit Luftdruck NN (hPa) Tendenz (hPa in 3 Std.)
Do, 30.05. 8:00 1005 - 0,8
Do, 30.05. 2:00 1008 - 2,1
Mi, 29.05. 20:00 1011 - 0,8
Mi, 29.05. 14:00 1013 - 0,6
Mi, 29.05. 8:00 1015 - 0,6
Mi, 29.05. 2:00 1017 - 1,3
Di, 28.05. 20:00 1018 - 0,7
Di, 28.05. 14:00 1020 - 0,5
Ortszeit Luftdruck NN (hPa) Tendenz (hPa in 3 Std.)
Do, 30.05. 12:30 1005 + 0,4
Do, 30.05. 12:20 1005 keine Meldung
Do, 30.05. 12:10 1006 keine Meldung
Do, 30.05. 12:00 1006 + 0,5
Do, 30.05. 11:50 1006 keine Meldung
Do, 30.05. 11:40 1006 keine Meldung
Do, 30.05. 11:30 1006 + 0,8
Do, 30.05. 11:00 1006 + 1,0
Do, 30.05. 10:30 1006 + 0,7
Do, 30.05. 10:00 1006 + 0,7
Do, 30.05. 9:30 1006 + 0,4
Ortszeit Schneehöhe (cm)
Do, 30.05. 8:00 0
Do, 30.05. 2:00 0
Mi, 29.05. 20:00 0
Mi, 29.05. 14:00 0
Mi, 29.05. 8:00 0
Mi, 29.05. 2:00 0
Di, 28.05. 20:00 0
Di, 28.05. 14:00 0
Ortszeit Schneehöhe (cm)
Do, 30.05. 12:30 0
Do, 30.05. 12:20 0
Do, 30.05. 12:10 -
Do, 30.05. 12:00 0
Do, 30.05. 11:50 0
Do, 30.05. 11:40 -
Do, 30.05. 11:30 0
Do, 30.05. 11:00 0
Do, 30.05. 10:30 0
Do, 30.05. 10:00 0
Do, 30.05. 9:30 0
Link zu dieser Seite / Seite empfehlen

Das Wetter in ...